ADDS METAR Data INFO
IDs: Format: Raw Decoded Include TAF

Data at: 0703 UTC 19 Oct 2017

KMAI 190653Z AUTO 03003KT 10SM CLR 15/11 A3019 RMK AO2 SLP221 T01500111
KMAI 190553Z AUTO 05003KT 10SM CLR 16/11 A3020 RMK AO2 SLP224 T01610111 10211 20161 402670089 58005
KMAI 190453Z AUTO 06003KT 10SM CLR 16/12 A3020 RMK AO2 SLP227 T01610117
KMAI 190353Z AUTO 07004KT 10SM CLR 18/12 A3022 RMK AO2 SLP232 T01780117
KMAI 190253Z AUTO 06005KT 10SM CLR 18/12 A3021 RMK AO2 SLP229 T01780122 51012
KMAI 190153Z AUTO 06005KT 10SM CLR 19/13 A3020 RMK AO2 SLP226 T01890133
KMAI 190053Z AUTO 05004KT 10SM CLR 20/13 A3019 RMK AO2 SLP222 T02000133
KMAI 182353Z AUTO 03004KT 10SM CLR 21/14 A3017 RMK AO2 SLP216 T02060139 10267 20206 53006
KMAI 182253Z AUTO 04006KT 10SM CLR 23/13 A3016 RMK AO2 SLP211 T02330133
KMAI 182153Z AUTO 06007KT 10SM CLR 26/13 A3015 RMK AO2 SLP209 T02560128
KMAI 182053Z AUTO 05008KT 10SM CLR 27/13 A3016 RMK AO2 SLP210 T02670133 56014
KMAI 181953Z AUTO VRB04KT 10SM CLR 26/13 A3016 RMK AO2 SLP211 T02610133
KMAI 181853Z AUTO 06011G17KT 10SM CLR 25/13 A3017 RMK AO2 SLP214 T02500133
KMAI 181753Z AUTO 08007KT 10SM CLR 24/13 A3020 RMK AO2 SLP224 T02440128 10250 20094 58020
KMAI 181653Z AUTO 04010KT 10SM CLR 23/12 A3023 RMK AO2 SLP234 T02330122
KMAI 181553Z AUTO 06011KT 10SM SCT035 21/11 A3025 RMK AO2 SLP242 T02110111
KMAI 181453Z AUTO 06010KT 10SM CLR 18/10 A3026 RMK AO2 SLP244 T01830100 51012
KMAI 181353Z AUTO 08009KT 10SM CLR 16/08 A3025 RMK AO2 SLP242 T01560083
KMAI 181253Z AUTO 07005KT 10SM CLR 12/08 A3024 RMK AO2 SLP238 T01170078
KMAI 181153Z AUTO 05003KT 10SM CLR 10/06 A3022 RMK AO2 SLP233 T01000061 10122 20089 51013
KMAI 181053Z AUTO 05005KT 10SM CLR 09/06 A3021 RMK AO2 SLP227 T00940061
KMAI 180953Z AUTO 07004KT 10SM CLR 10/06 A3020 RMK AO2 SLP225 T01000061
KMAI 180853Z AUTO 06005KT 10SM CLR 09/06 A3018 RMK AO2 SLP220 T00940061 58007
KMAI 180753Z AUTO 08003KT 10SM CLR 09/06 A3020 RMK AO2 SLP224 T00940061
KMAI 180653Z AUTO 00000KT 10SM CLR 10/07 A3020 RMK AO2 SLP225 T01000067
KMAI 180553Z AUTO 00000KT 10SM CLR 12/07 A3020 RMK AO2 SLP227 T01170067 10178 20111 402500111 55004
KMAI 180453Z AUTO 06005KT 10SM CLR 12/07 A3020 RMK AO2 SLP226 T01170067
KMAI 180353Z AUTO 06005KT 10SM CLR 13/07 A3021 RMK AO2 SLP227 T01330072
KMAI 180253Z AUTO 07004KT 10SM CLR 14/07 A3022 RMK AO2 SLP231 T01440067 51017
KMAI 180153Z AUTO 07004KT 10SM CLR 16/07 A3020 RMK AO2 SLP226 T01560067
KMAI 180053Z AUTO 05004KT 10SM CLR 17/07 A3019 RMK AO2 SLP221 T01670072
KMAI 172353Z AUTO 07004KT 10SM CLR 18/07 A3017 RMK AO2 SLP214 T01780067 10250 20178 53013
KMAI 172253Z AUTO 05007KT 10SM CLR 21/06 A3015 RMK AO2 SLP207 T02110056
KMAI 172153Z AUTO 05012KT 10SM CLR 24/05 A3013 RMK AO2 SLP201 T02390050
KMAI 172053Z AUTO 05012KT 10SM CLR 24/07 A3013 RMK AO2 SLP201 T02440067 56018
KMAI 171953Z AUTO 06013KT 10SM CLR 25/08 A3013 RMK AO2 SLP203 T02500078